Silver City, NM

2:56 PM MDT on September 21, 2017 (GMT -0600)
Grant County

Weather History for KSVC - March, 2013

Change the Weather History Date:

Thursday, March 21, 2013

  Actual Average (KDMN) Record (KDMN)
Temperature  
Mean Temperature 57 °F -  
Max Temperature 68 °F 72 °F 87 °F (2017)
Min Temperature 46 °F 34 °F 24 °F (1955)
Degree Days  
Heating Degree Days 8    
Growing Degree Days 7 (Base 50)    
Moisture  
Dew Point 23 °F    
Average Humidity 28    
Maximum Humidity 37    
Minimum Humidity 17    
Precipitation  
Precipitation 0.00 in - - ()
Sea Level Pressure  
Sea Level Pressure 29.90 in    
Wind  
Wind Speed 12 mph (WNW)    
Max Wind Speed 24 mph    
Max Gust Speed 36 mph    
Visibility 10 miles    
Events      
Averages and records for this station are not official NWS values.
T = Trace of Precipitation, MM = Missing Value Source: NWS Daily Summary

Daily Weather History Graph

Daily Weather History Graph

Search for Another Location

Airport or City:

Trip Planner

Search our weather history database for the weather conditions in past years. The results will help you decide how hot, cold, wet, or windy it might be!

Date:

Astronomy

Mar. 21, 2013 Rise Set
Actual Time 7:14 AM MDT 7:25 PM MDT
Civil Twilight 6:50 AM MDT 7:49 PM MDT
Nautical Twilight 6:21 AM MDT 8:18 PM MDT
Astronomical Twilight 5:52 AM MDT 8:47 PM MDT
Moon 2:13 PM MDT 3:22 AM MDT
Length of Visible Light 12h 59m
Length of Day
12h 10m
Waxing Gibbous, 69% of the Moon is Illuminated
Mar 21
Waxing Gibbous
Mar 27
Full
Apr 2
Last Quarter
Apr 10
New
Apr 18
First Quarter

Hourly Weather History & Observations

Time (MDT) Temp. Windchill Dew Point Humidity Pressure Visibility Wind Dir Wind Speed Gust Speed Precip Events Conditions
12:15 AM 48.2 °F - 19.4 °F 32% 30.00 in 10.0 mi WNW 6.9 mph - N/A   Clear
12:35 AM 48.2 °F - 19.4 °F 32% 30.00 in 10.0 mi WNW 8.1 mph - N/A   Clear
12:55 AM 50.0 °F - 19.4 °F 30% 30.00 in 10.0 mi NW 10.4 mph - N/A   Clear
1:15 AM 48.2 °F - 19.4 °F 32% 29.99 in 10.0 mi NW 11.5 mph - N/A   Clear
1:35 AM 48.2 °F - 19.4 °F 32% 29.98 in 10.0 mi NW 11.5 mph - N/A   Clear
1:55 AM 50.0 °F - 19.4 °F 30% 29.97 in 10.0 mi NW 10.4 mph - N/A   Clear
2:15 AM 48.2 °F - 19.4 °F 32% 29.97 in 10.0 mi NNW 10.4 mph - N/A   Clear
2:35 AM 48.2 °F - 19.4 °F 32% 29.97 in 10.0 mi NW 10.4 mph - N/A   Clear
2:55 AM 48.2 °F - 19.4 °F 32% 29.96 in 10.0 mi NW 10.4 mph - N/A   Clear
3:15 AM 46.4 °F 41.5 °F 19.4 °F 34% 29.95 in 10.0 mi NNW 10.4 mph - N/A   Clear
3:35 AM 50.0 °F - 21.2 °F 32% 29.95 in 10.0 mi NW 12.7 mph - N/A   Clear
3:55 AM 50.0 °F - 21.2 °F 32% 29.94 in 10.0 mi NW 8.1 mph - N/A   Clear
4:15 AM 50.0 °F - 21.2 °F 32% 29.93 in 10.0 mi NW 10.4 mph - N/A   Clear
4:35 AM 50.0 °F - 23.0 °F 35% 29.92 in 10.0 mi NNW 10.4 mph - N/A   Clear
4:55 AM 50.0 °F - 23.0 °F 35% 29.91 in 10.0 mi NW 11.5 mph - N/A   Clear
5:15 AM 50.0 °F - 23.0 °F 35% 29.90 in 10.0 mi NNW 10.4 mph - N/A   Clear
5:35 AM 48.2 °F - 23.0 °F 37% 29.90 in 10.0 mi NNW 8.1 mph - N/A   Clear
5:55 AM 48.2 °F - 23.0 °F 37% 29.90 in 10.0 mi NW 10.4 mph 16.1 mph N/A   Clear
6:15 AM 48.2 °F - 23.0 °F 37% 29.91 in 10.0 mi WNW 6.9 mph - N/A   Clear
6:35 AM 48.2 °F - 23.0 °F 37% 29.92 in 10.0 mi WNW 10.4 mph - N/A   Clear
6:55 AM 48.2 °F - 23.0 °F 37% 29.92 in 10.0 mi WNW 5.8 mph - N/A   Clear
7:15 AM 50.0 °F - 23.0 °F 35% 29.91 in 10.0 mi North 4.6 mph - N/A   Clear
7:35 AM 50.0 °F - 23.0 °F 35% 29.92 in 10.0 mi NW 6.9 mph - N/A   Clear
7:55 AM 50.0 °F - 23.0 °F 35% 29.93 in 10.0 mi NW 6.9 mph - N/A   Clear
8:15 AM 53.6 °F - 24.8 °F 33% 29.92 in 10.0 mi WNW 8.1 mph - N/A   Clear
8:35 AM 55.4 °F - 24.8 °F 31% 29.93 in 10.0 mi WNW 8.1 mph - N/A   Clear
8:55 AM 55.4 °F - 24.8 °F 31% 29.94 in 10.0 mi WNW 10.4 mph - N/A   Clear
9:15 AM 55.4 °F - 24.8 °F 31% 29.94 in 10.0 mi NW 9.2 mph - N/A   Clear
9:35 AM 57.2 °F - 24.8 °F 29% 29.94 in 10.0 mi West 8.1 mph - N/A   Clear
9:55 AM 59.0 °F - 26.6 °F 29% 29.94 in 10.0 mi WNW 11.5 mph 18.4 mph N/A   Clear
10:15 AM 59.0 °F - 26.6 °F 29% 29.93 in 10.0 mi WNW 16.1 mph 21.9 mph N/A   Clear
10:35 AM 59.0 °F - 26.6 °F 29% 29.93 in 10.0 mi WNW 18.4 mph 24.2 mph N/A   Clear
10:55 AM 59.0 °F - 26.6 °F 29% 29.93 in 10.0 mi WNW 19.6 mph 24.2 mph N/A   Clear
11:15 AM 60.8 °F - 26.6 °F 27% 29.93 in 10.0 mi WNW 16.1 mph 26.5 mph N/A   Clear
11:35 AM 62.6 °F - 26.6 °F 26% 29.93 in 10.0 mi WNW 16.1 mph 25.3 mph N/A   Clear
11:55 AM 62.6 °F - 26.6 °F 26% 29.92 in 10.0 mi West 16.1 mph 24.2 mph N/A   Clear
12:15 PM 62.6 °F - 26.6 °F 26% 29.92 in 10.0 mi NW 20.7 mph 26.5 mph N/A   Clear
12:35 PM 62.6 °F - 26.6 °F 26% 29.91 in 10.0 mi NW 20.7 mph 24.2 mph N/A   Clear
12:55 PM 62.6 °F - 26.6 °F 26% 29.91 in 10.0 mi WNW 19.6 mph 26.5 mph N/A   Clear
1:15 PM 64.4 °F - 26.6 °F 24% 29.90 in 10.0 mi WNW 17.3 mph 28.8 mph N/A   Clear
1:35 PM 64.4 °F - 26.6 °F 24% 29.88 in 10.0 mi WNW 21.9 mph 27.6 mph N/A   Clear
2:15 PM 66.2 °F - 24.8 °F 21% 29.87 in 10.0 mi WNW 21.9 mph 31.1 mph N/A   Clear
2:35 PM 66.2 °F - 24.8 °F 21% 29.86 in 10.0 mi West 24.2 mph 31.1 mph N/A   Clear
2:55 PM 66.2 °F - 24.8 °F 21% 29.85 in 10.0 mi West 24.2 mph 29.9 mph N/A   Clear
3:15 PM 66.2 °F - 23.0 °F 19% 29.85 in 10.0 mi West 18.4 mph 26.5 mph N/A   Clear
3:35 PM 66.2 °F - 23.0 °F 19% 29.85 in 10.0 mi West 16.1 mph 27.6 mph N/A   Clear
3:55 PM 66.2 °F - 24.8 °F 21% 29.85 in 10.0 mi West 13.8 mph 29.9 mph N/A   Clear
4:15 PM 66.2 °F - 24.8 °F 21% 29.84 in 10.0 mi West 24.2 mph 29.9 mph N/A   Clear
4:35 PM 66.2 °F - 23.0 °F 19% 29.84 in 10.0 mi West 15.0 mph 32.2 mph N/A   Clear
4:55 PM 66.2 °F - 23.0 °F 19% 29.84 in 10.0 mi West 20.7 mph 32.2 mph N/A   Clear
5:15 PM 66.2 °F - 21.2 °F 18% 29.84 in 10.0 mi West 17.3 mph 26.5 mph N/A   Clear
5:35 PM 68.0 °F - 21.2 °F 17% 29.84 in 10.0 mi WNW 24.2 mph 32.2 mph N/A   Clear
5:55 PM 66.2 °F - 23.0 °F 19% 29.83 in 10.0 mi West 17.3 mph 31.1 mph N/A   Clear
6:15 PM 66.2 °F - 23.0 °F 19% 29.83 in 10.0 mi West 23.0 mph 35.7 mph N/A   Clear
6:35 PM 64.4 °F - 24.8 °F 22% 29.84 in 10.0 mi West 17.3 mph 31.1 mph N/A   Clear
6:55 PM 64.4 °F - 24.8 °F 22% 29.84 in 10.0 mi West 19.6 mph 27.6 mph N/A   Clear
7:15 PM 64.4 °F - 24.8 °F 22% 29.84 in 10.0 mi West 19.6 mph 26.5 mph N/A   Clear
7:35 PM 62.6 °F - 24.8 °F 24% 29.84 in 10.0 mi West 18.4 mph 24.2 mph N/A   Clear
7:55 PM 62.6 °F - 24.8 °F 24% 29.85 in 10.0 mi West 19.6 mph 24.2 mph N/A   Clear
8:15 PM 60.8 °F - 23.0 °F 23% 29.85 in 10.0 mi West 19.6 mph 24.2 mph N/A   Clear
8:35 PM 59.0 °F - 21.2 °F 23% 29.85 in 10.0 mi WNW 13.8 mph - N/A   Clear
8:55 PM 57.2 °F - 21.2 °F 25% 29.87 in 10.0 mi WNW 11.5 mph - N/A   Clear
9:15 PM 57.2 °F - 21.2 °F 25% 29.88 in 10.0 mi WNW 4.6 mph - N/A   Clear
9:35 PM 57.2 °F - 19.4 °F 23% 29.88 in 10.0 mi NNW 3.5 mph - N/A   Clear
9:55 PM 55.4 °F - 19.4 °F 25% 29.89 in 10.0 mi North 6.9 mph - N/A   Clear
10:15 PM 55.4 °F - 23.0 °F 29% 29.89 in 10.0 mi North 11.5 mph - N/A   Clear
10:35 PM 55.4 °F - 23.0 °F 29% 29.89 in 10.0 mi NNW 10.4 mph - N/A   Clear
10:55 PM 55.4 °F - 23.0 °F 29% 29.89 in 10.0 mi NW 11.5 mph - N/A   Clear
11:15 PM 55.4 °F - 24.8 °F 31% 29.89 in 10.0 mi NNW 6.9 mph - N/A   Clear
11:35 PM 55.4 °F - 24.8 °F 31% 29.88 in 10.0 mi North 6.9 mph - N/A   Clear
11:55 PM 53.6 °F - 24.8 °F 33% 29.88 in 10.0 mi NNW 4.6 mph - N/A   Clear